sensor_id;sensor_type;location;lat;lon;timestamp;temperature;humidity
7530;DHT22;3806;52.270;10.544;2023-02-13T00:02:25;9.40;99.90
7530;DHT22;3806;52.270;10.544;2023-02-13T00:04:50;9.40;99.90
7530;DHT22;3806;52.270;10.544;2023-02-13T00:07:16;9.30;99.90
7530;DHT22;3806;52.270;10.544;2023-02-13T00:09:42;9.30;99.90
7530;DHT22;3806;52.270;10.544;2023-02-13T00:12:08;9.30;99.90
7530;DHT22;3806;52.270;10.544;2023-02-13T00:14:36;9.30;99.90
7530;DHT22;3806;52.270;10.544;2023-02-13T00:17:02;9.30;99.90
7530;DHT22;3806;52.270;10.544;2023-02-13T00:19:28;9.30;99.90
7530;DHT22;3806;52.270;10.544;2023-02-13T00:21:53;9.30;99.90
7530;DHT22;3806;52.270;10.544;2023-02-13T00:24:19;9.30;99.90
7530;DHT22;3806;52.270;10.544;2023-02-13T00:26:44;9.30;99.90
7530;DHT22;3806;52.270;10.544;2023-02-13T00:29:10;9.30;99.90
7530;DHT22;3806;52.270;10.544;2023-02-13T00:31:36;9.30;99.90
7530;DHT22;3806;52.270;10.544;2023-02-13T00:34:01;9.30;99.90
7530;DHT22;3806;52.270;10.544;2023-02-13T00:36:27;9.20;99.90
7530;DHT22;3806;52.270;10.544;2023-02-13T00:38:53;9.20;99.90
7530;DHT22;3806;52.270;10.544;2023-02-13T00:41:21;9.20;99.90
7530;DHT22;3806;52.270;10.544;2023-02-13T00:43:47;9.20;99.90
7530;DHT22;3806;52.270;10.544;2023-02-13T00:46:13;9.30;99.90
7530;DHT22;3806;52.270;10.544;2023-02-13T00:48:38;9.30;99.90
7530;DHT22;3806;52.270;10.544;2023-02-13T00:51:05;9.30;99.90
7530;DHT22;3806;52.270;10.544;2023-02-13T00:53:31;9.30;99.90
7530;DHT22;3806;52.270;10.544;2023-02-13T00:55:57;9.30;99.90
7530;DHT22;3806;52.270;10.544;2023-02-13T00:58:25;9.30;99.90
7530;DHT22;3806;52.270;10.544;2023-02-13T01:00:52;9.30;99.90
7530;DHT22;3806;52.270;10.544;2023-02-13T01:03:19;9.30;99.90
7530;DHT22;3806;52.270;10.544;2023-02-13T01:05:46;9.30;99.90
7530;DHT22;3806;52.270;10.544;2023-02-13T01:08:12;9.30;99.90
7530;DHT22;3806;52.270;10.544;2023-02-13T01:10:39;9.30;99.90
7530;DHT22;3806;52.270;10.544;2023-02-13T01:13:05;9.30;99.90
7530;DHT22;3806;52.270;10.544;2023-02-13T01:15:31;9.30;99.90
7530;DHT22;3806;52.270;10.544;2023-02-13T01:17:57;9.20;99.90
7530;DHT22;3806;52.270;10.544;2023-02-13T01:20:23;9.20;99.90
7530;DHT22;3806;52.270;10.544;2023-02-13T01:22:49;9.20;99.90
7530;DHT22;3806;52.270;10.544;2023-02-13T01:25:16;9.10;99.90
7530;DHT22;3806;52.270;10.544;2023-02-13T01:27:41;9.10;99.90
7530;DHT22;3806;52.270;10.544;2023-02-13T01:30:09;9.10;99.90
7530;DHT22;3806;52.270;10.544;2023-02-13T01:32:41;9.10;99.90
7530;DHT22;3806;52.270;10.544;2023-02-13T01:35:08;9.10;99.90
7530;DHT22;3806;52.270;10.544;2023-02-13T01:37:34;9.20;99.90
7530;DHT22;3806;52.270;10.544;2023-02-13T01:40:00;9.10;99.90
7530;DHT22;3806;52.270;10.544;2023-02-13T01:42:29;9.10;99.90
7530;DHT22;3806;52.270;10.544;2023-02-13T01:44:57;9.10;99.90
7530;DHT22;3806;52.270;10.544;2023-02-13T01:50:02;9.10;99.90
7530;DHT22;3806;52.270;10.544;2023-02-13T01:52:29;9.10;99.90
7530;DHT22;3806;52.270;10.544;2023-02-13T01:54:55;9.10;99.90
7530;DHT22;3806;52.270;10.544;2023-02-13T01:57:23;9.20;99.90
7530;DHT22;3806;52.270;10.544;2023-02-13T01:59:58;9.10;99.90
7530;DHT22;3806;52.270;10.544;2023-02-13T02:02:25;9.10;99.90
7530;DHT22;3806;52.270;10.544;2023-02-13T02:04:51;9.10;99.90
7530;DHT22;3806;52.270;10.544;2023-02-13T02:07:20;9.10;99.90
7530;DHT22;3806;52.270;10.544;2023-02-13T02:09:47;9.10;99.90
7530;DHT22;3806;52.270;10.544;2023-02-13T02:12:24;9.10;99.90
7530;DHT22;3806;52.270;10.544;2023-02-13T02:14:53;9.10;99.90
7530;DHT22;3806;52.270;10.544;2023-02-13T02:17:21;9.20;99.90
7530;DHT22;3806;52.270;10.544;2023-02-13T02:22:57;9.10;99.90
7530;DHT22;3806;52.270;10.544;2023-02-13T02:31:18;9.10;99.90
7530;DHT22;3806;52.270;10.544;2023-02-13T02:40:02;9.20;99.90
7530;DHT22;3806;52.270;10.544;2023-02-13T02:46:09;9.10;99.90
7530;DHT22;3806;52.270;10.544;2023-02-13T02:51:21;9.10;99.90
7530;DHT22;3806;52.270;10.544;2023-02-13T02:54:16;9.20;99.90
7530;DHT22;3806;52.270;10.544;2023-02-13T02:57:08;9.10;99.90
7530;DHT22;3806;52.270;10.544;2023-02-13T02:59:35;9.10;99.90
7530;DHT22;3806;52.270;10.544;2023-02-13T03:02:21;9.10;99.90
7530;DHT22;3806;52.270;10.544;2023-02-13T03:05:21;9.00;99.90
7530;DHT22;3806;52.270;10.544;2023-02-13T03:08:07;9.00;99.90
7530;DHT22;3806;52.270;10.544;2023-02-13T03:10:36;9.00;99.90
7530;DHT22;3806;52.270;10.544;2023-02-13T03:13:41;9.00;99.90
7530;DHT22;3806;52.270;10.544;2023-02-13T03:16:14;9.00;99.90
7530;DHT22;3806;52.270;10.544;2023-02-13T03:18:58;9.00;99.90
7530;DHT22;3806;52.270;10.544;2023-02-13T03:21:55;9.10;99.90
7530;DHT22;3806;52.270;10.544;2023-02-13T03:25:11;9.00;99.90
7530;DHT22;3806;52.270;10.544;2023-02-13T03:27:56;9.00;99.90
7530;DHT22;3806;52.270;10.544;2023-02-13T03:30:54;9.00;99.90
7530;DHT22;3806;52.270;10.544;2023-02-13T03:39:14;9.00;99.90
7530;DHT22;3806;52.270;10.544;2023-02-13T03:41:58;9.00;99.90
7530;DHT22;3806;52.270;10.544;2023-02-13T03:44:36;9.00;99.90
7530;DHT22;3806;52.270;10.544;2023-02-13T03:47:04;8.90;99.90
7530;DHT22;3806;52.270;10.544;2023-02-13T03:49:42;8.90;99.90
7530;DHT22;3806;52.270;10.544;2023-02-13T03:55:09;8.90;99.90
7530;DHT22;3806;52.270;10.544;2023-02-13T03:57:58;8.90;99.90
7530;DHT22;3806;52.270;10.544;2023-02-13T04:00:51;8.90;99.90
7530;DHT22;3806;52.270;10.544;2023-02-13T04:06:12;8.90;99.90
7530;DHT22;3806;52.270;10.544;2023-02-13T04:08:38;8.90;99.90
7530;DHT22;3806;52.270;10.544;2023-02-13T04:11:09;8.90;99.90
7530;DHT22;3806;52.270;10.544;2023-02-13T04:13:50;9.00;99.90
7530;DHT22;3806;52.270;10.544;2023-02-13T04:16:34;9.00;99.90
7530;DHT22;3806;52.270;10.544;2023-02-13T04:19:04;9.00;99.90
7530;DHT22;3806;52.270;10.544;2023-02-13T04:21:34;9.00;99.90
7530;DHT22;3806;52.270;10.544;2023-02-13T04:24:01;9.00;99.90
7530;DHT22;3806;52.270;10.544;2023-02-13T04:26:37;9.00;99.90
7530;DHT22;3806;52.270;10.544;2023-02-13T04:29:04;9.00;99.90
7530;DHT22;3806;52.270;10.544;2023-02-13T04:31:30;9.00;99.90
7530;DHT22;3806;52.270;10.544;2023-02-13T04:33:56;8.90;99.90
7530;DHT22;3806;52.270;10.544;2023-02-13T04:36:21;8.90;99.90
7530;DHT22;3806;52.270;10.544;2023-02-13T04:38:47;8.90;99.90
7530;DHT22;3806;52.270;10.544;2023-02-13T04:41:13;8.90;99.90
7530;DHT22;3806;52.270;10.544;2023-02-13T04:43:38;8.90;99.90
7530;DHT22;3806;52.270;10.544;2023-02-13T04:46:04;8.90;99.90
7530;DHT22;3806;52.270;10.544;2023-02-13T04:48:30;8.90;99.90
7530;DHT22;3806;52.270;10.544;2023-02-13T04:50:55;8.90;99.90
7530;DHT22;3806;52.270;10.544;2023-02-13T04:53:21;8.90;99.90
7530;DHT22;3806;52.270;10.544;2023-02-13T04:55:47;8.90;99.90
7530;DHT22;3806;52.270;10.544;2023-02-13T04:58:12;9.00;99.90
7530;DHT22;3806;52.270;10.544;2023-02-13T05:00:38;8.80;99.90
7530;DHT22;3806;52.270;10.544;2023-02-13T05:03:08;8.80;99.90
7530;DHT22;3806;52.270;10.544;2023-02-13T05:05:34;8.80;99.90
7530;DHT22;3806;52.270;10.544;2023-02-13T05:08:00;8.80;99.90
7530;DHT22;3806;52.270;10.544;2023-02-13T05:10:26;8.80;99.90
7530;DHT22;3806;52.270;10.544;2023-02-13T05:12:52;8.80;99.90
7530;DHT22;3806;52.270;10.544;2023-02-13T05:15:18;8.90;99.90
7530;DHT22;3806;52.270;10.544;2023-02-13T05:17:44;8.80;99.90
7530;DHT22;3806;52.270;10.544;2023-02-13T05:20:11;8.80;99.90
7530;DHT22;3806;52.270;10.544;2023-02-13T05:22:37;8.80;99.90
7530;DHT22;3806;52.270;10.544;2023-02-13T05:25:26;8.80;99.90
7530;DHT22;3806;52.270;10.544;2023-02-13T05:27:51;8.70;99.90
7530;DHT22;3806;52.270;10.544;2023-02-13T05:30:17;8.70;99.90
7530;DHT22;3806;52.270;10.544;2023-02-13T05:32:42;8.70;99.90
7530;DHT22;3806;52.270;10.544;2023-02-13T05:35:08;8.70;99.90
7530;DHT22;3806;52.270;10.544;2023-02-13T05:37:34;8.70;99.90
7530;DHT22;3806;52.270;10.544;2023-02-13T05:39:59;8.70;99.90
7530;DHT22;3806;52.270;10.544;2023-02-13T05:42:25;8.70;99.90
7530;DHT22;3806;52.270;10.544;2023-02-13T05:44:51;8.70;99.90
7530;DHT22;3806;52.270;10.544;2023-02-13T05:47:16;8.70;99.90
7530;DHT22;3806;52.270;10.544;2023-02-13T05:49:42;8.70;99.90
7530;DHT22;3806;52.270;10.544;2023-02-13T05:52:07;8.70;99.90
7530;DHT22;3806;52.270;10.544;2023-02-13T05:54:33;8.70;99.90
7530;DHT22;3806;52.270;10.544;2023-02-13T05:56:58;8.60;99.90
7530;DHT22;3806;52.270;10.544;2023-02-13T05:59:24;8.60;99.90
7530;DHT22;3806;52.270;10.544;2023-02-13T06:01:49;8.70;99.90
7530;DHT22;3806;52.270;10.544;2023-02-13T06:04:15;8.70;99.90
7530;DHT22;3806;52.270;10.544;2023-02-13T06:06:41;8.70;99.90
7530;DHT22;3806;52.270;10.544;2023-02-13T06:09:06;8.70;99.90
7530;DHT22;3806;52.270;10.544;2023-02-13T06:11:33;8.70;99.90
7530;DHT22;3806;52.270;10.544;2023-02-13T06:13:59;8.80;99.90
7530;DHT22;3806;52.270;10.544;2023-02-13T06:16:24;8.70;99.90
7530;DHT22;3806;52.270;10.544;2023-02-13T06:18:50;8.70;99.90
7530;DHT22;3806;52.270;10.544;2023-02-13T06:21:15;8.70;99.90
7530;DHT22;3806;52.270;10.544;2023-02-13T06:23:41;8.70;99.90
7530;DHT22;3806;52.270;10.544;2023-02-13T06:26:08;8.70;99.90
7530;DHT22;3806;52.270;10.544;2023-02-13T06:28:34;8.70;99.90
7530;DHT22;3806;52.270;10.544;2023-02-13T06:30:59;8.70;99.90
7530;DHT22;3806;52.270;10.544;2023-02-13T06:33:25;8.60;99.90
7530;DHT22;3806;52.270;10.544;2023-02-13T06:35:51;8.60;99.90
7530;DHT22;3806;52.270;10.544;2023-02-13T06:38:16;8.70;99.90
7530;DHT22;3806;52.270;10.544;2023-02-13T06:40:47;8.70;99.90
7530;DHT22;3806;52.270;10.544;2023-02-13T06:43:13;8.70;99.90
7530;DHT22;3806;52.270;10.544;2023-02-13T06:45:40;8.70;99.90
7530;DHT22;3806;52.270;10.544;2023-02-13T06:48:06;8.70;99.90
7530;DHT22;3806;52.270;10.544;2023-02-13T06:50:32;8.80;99.90
7530;DHT22;3806;52.270;10.544;2023-02-13T06:52:59;8.80;99.90
7530;DHT22;3806;52.270;10.544;2023-02-13T06:55:25;8.90;99.90
7530;DHT22;3806;52.270;10.544;2023-02-13T06:57:50;8.80;99.90
7530;DHT22;3806;52.270;10.544;2023-02-13T07:00:17;8.80;99.90
7530;DHT22;3806;52.270;10.544;2023-02-13T07:02:44;8.80;99.90
7530;DHT22;3806;52.270;10.544;2023-02-13T07:05:10;8.80;99.90
7530;DHT22;3806;52.270;10.544;2023-02-13T07:07:38;8.90;99.90
7530;DHT22;3806;52.270;10.544;2023-02-13T07:10:05;8.90;99.90
7530;DHT22;3806;52.270;10.544;2023-02-13T07:12:35;8.90;99.90
7530;DHT22;3806;52.270;10.544;2023-02-13T07:15:01;8.90;99.90
7530;DHT22;3806;52.270;10.544;2023-02-13T07:17:27;8.90;99.90
7530;DHT22;3806;52.270;10.544;2023-02-13T07:19:53;8.90;99.90
7530;DHT22;3806;52.270;10.544;2023-02-13T07:22:19;8.90;99.90
7530;DHT22;3806;52.270;10.544;2023-02-13T07:24:44;9.00;99.90
7530;DHT22;3806;52.270;10.544;2023-02-13T07:27:10;9.10;99.90
7530;DHT22;3806;52.270;10.544;2023-02-13T07:29:35;9.00;99.90
7530;DHT22;3806;52.270;10.544;2023-02-13T07:32:01;9.10;99.90
7530;DHT22;3806;52.270;10.544;2023-02-13T07:34:27;9.10;99.90
7530;DHT22;3806;52.270;10.544;2023-02-13T07:36:52;9.10;99.90
7530;DHT22;3806;52.270;10.544;2023-02-13T07:39:18;9.10;99.90
7530;DHT22;3806;52.270;10.544;2023-02-13T07:41:44;9.10;99.90
7530;DHT22;3806;52.270;10.544;2023-02-13T07:44:09;9.10;99.90
7530;DHT22;3806;52.270;10.544;2023-02-13T07:46:35;9.10;99.90
7530;DHT22;3806;52.270;10.544;2023-02-13T07:49:01;9.10;99.90
7530;DHT22;3806;52.270;10.544;2023-02-13T07:51:26;9.20;99.90
7530;DHT22;3806;52.270;10.544;2023-02-13T07:53:54;9.20;99.90
7530;DHT22;3806;52.270;10.544;2023-02-13T07:56:20;9.20;99.90
7530;DHT22;3806;52.270;10.544;2023-02-13T07:58:46;9.20;99.90
7530;DHT22;3806;52.270;10.544;2023-02-13T08:01:13;9.20;99.90
7530;DHT22;3806;52.270;10.544;2023-02-13T08:03:39;9.10;99.90
7530;DHT22;3806;52.270;10.544;2023-02-13T08:06:06;9.20;99.90
7530;DHT22;3806;52.270;10.544;2023-02-13T08:08:32;9.20;99.90
7530;DHT22;3806;52.270;10.544;2023-02-13T08:11:04;9.20;99.90
7530;DHT22;3806;52.270;10.544;2023-02-13T08:13:49;9.30;99.90
7530;DHT22;3806;52.270;10.544;2023-02-13T08:16:14;9.30;99.90
7530;DHT22;3806;52.270;10.544;2023-02-13T08:18:40;9.30;99.90
7530;DHT22;3806;52.270;10.544;2023-02-13T08:21:05;9.40;99.90
7530;DHT22;3806;52.270;10.544;2023-02-13T08:23:31;9.40;99.90
7530;DHT22;3806;52.270;10.544;2023-02-13T08:26:00;9.40;99.90
7530;DHT22;3806;52.270;10.544;2023-02-13T08:28:27;9.50;99.90
7530;DHT22;3806;52.270;10.544;2023-02-13T08:30:53;9.40;99.90
7530;DHT22;3806;52.270;10.544;2023-02-13T08:33:19;9.40;99.90
7530;DHT22;3806;52.270;10.544;2023-02-13T08:35:44;9.40;99.90
7530;DHT22;3806;52.270;10.544;2023-02-13T08:38:10;9.40;99.90
7530;DHT22;3806;52.270;10.544;2023-02-13T08:40:35;9.40;99.90
7530;DHT22;3806;52.270;10.544;2023-02-13T08:43:03;9.50;99.90
7530;DHT22;3806;52.270;10.544;2023-02-13T08:45:29;9.50;99.90
7530;DHT22;3806;52.270;10.544;2023-02-13T08:47:56;9.50;99.90
7530;DHT22;3806;52.270;10.544;2023-02-13T08:50:22;9.50;99.90
7530;DHT22;3806;52.270;10.544;2023-02-13T08:52:47;9.50;99.90
7530;DHT22;3806;52.270;10.544;2023-02-13T08:55:13;9.50;99.90
7530;DHT22;3806;52.270;10.544;2023-02-13T08:57:39;9.50;99.90
7530;DHT22;3806;52.270;10.544;2023-02-13T09:00:05;9.60;99.90
7530;DHT22;3806;52.270;10.544;2023-02-13T09:02:30;9.50;99.90
7530;DHT22;3806;52.270;10.544;2023-02-13T09:04:56;9.50;99.90
7530;DHT22;3806;52.270;10.544;2023-02-13T09:07:22;9.60;99.90
7530;DHT22;3806;52.270;10.544;2023-02-13T09:09:47;9.60;99.90
7530;DHT22;3806;52.270;10.544;2023-02-13T09:12:13;9.60;99.90
7530;DHT22;3806;52.270;10.544;2023-02-13T09:14:39;9.60;99.90
7530;DHT22;3806;52.270;10.544;2023-02-13T09:17:05;9.60;99.90
7530;DHT22;3806;52.270;10.544;2023-02-13T09:19:30;9.60;99.90
7530;DHT22;3806;52.270;10.544;2023-02-13T09:21:56;9.60;99.90
7530;DHT22;3806;52.270;10.544;2023-02-13T09:24:21;9.70;99.90
7530;DHT22;3806;52.270;10.544;2023-02-13T09:26:47;9.70;99.90
7530;DHT22;3806;52.270;10.544;2023-02-13T09:29:13;9.70;99.90
7530;DHT22;3806;52.270;10.544;2023-02-13T09:31:38;9.70;99.90
7530;DHT22;3806;52.270;10.544;2023-02-13T09:34:04;9.70;99.90
7530;DHT22;3806;52.270;10.544;2023-02-13T09:36:30;9.70;99.90
7530;DHT22;3806;52.270;10.544;2023-02-13T09:38:56;9.70;99.90
7530;DHT22;3806;52.270;10.544;2023-02-13T09:43:54;9.80;99.90
7530;DHT22;3806;52.270;10.544;2023-02-13T09:46:28;9.80;99.90
7530;DHT22;3806;52.270;10.544;2023-02-13T09:48:56;9.80;99.90
7530;DHT22;3806;52.270;10.544;2023-02-13T09:51:25;9.80;99.90
7530;DHT22;3806;52.270;10.544;2023-02-13T09:54:01;9.70;99.90
7530;DHT22;3806;52.270;10.544;2023-02-13T09:57:00;9.70;99.90
7530;DHT22;3806;52.270;10.544;2023-02-13T09:59:57;9.70;99.90
7530;DHT22;3806;52.270;10.544;2023-02-13T10:08:44;9.80;99.90
7530;DHT22;3806;52.270;10.544;2023-02-13T10:16:48;10.00;99.90
7530;DHT22;3806;52.270;10.544;2023-02-13T10:19:29;10.00;99.90
7530;DHT22;3806;52.270;10.544;2023-02-13T10:22:24;10.10;99.90
7530;DHT22;3806;52.270;10.544;2023-02-13T10:25:07;10.00;99.90
7530;DHT22;3806;52.270;10.544;2023-02-13T10:27:44;10.00;99.90
7530;DHT22;3806;52.270;10.544;2023-02-13T10:33:57;10.10;99.90
7530;DHT22;3806;52.270;10.544;2023-02-13T10:36:31;10.10;99.90
7530;DHT22;3806;52.270;10.544;2023-02-13T10:39:13;10.10;99.90
7530;DHT22;3806;52.270;10.544;2023-02-13T10:50:29;10.20;99.90
7530;DHT22;3806;52.270;10.544;2023-02-13T11:04:04;10.40;99.90
7530;DHT22;3806;52.270;10.544;2023-02-13T11:06:32;10.40;99.90
7530;DHT22;3806;52.270;10.544;2023-02-13T11:08:59;10.50;99.90
7530;DHT22;3806;52.270;10.544;2023-02-13T11:21:54;10.50;99.90
7530;DHT22;3806;52.270;10.544;2023-02-13T11:24:25;10.50;99.90
7530;DHT22;3806;52.270;10.544;2023-02-13T11:27:04;10.50;99.90
7530;DHT22;3806;52.270;10.544;2023-02-13T11:29:35;10.50;99.90
7530;DHT22;3806;52.270;10.544;2023-02-13T11:32:20;10.50;99.90
7530;DHT22;3806;52.270;10.544;2023-02-13T11:34:46;10.50;99.90
7530;DHT22;3806;52.270;10.544;2023-02-13T11:39:38;10.50;99.90
7530;DHT22;3806;52.270;10.544;2023-02-13T11:42:16;10.50;99.90
7530;DHT22;3806;52.270;10.544;2023-02-13T11:44:48;10.50;99.90
7530;DHT22;3806;52.270;10.544;2023-02-13T11:47:14;10.60;99.90
7530;DHT22;3806;52.270;10.544;2023-02-13T11:49:45;10.60;99.90
7530;DHT22;3806;52.270;10.544;2023-02-13T11:52:29;10.60;99.90
7530;DHT22;3806;52.270;10.544;2023-02-13T11:55:25;10.60;99.90
7530;DHT22;3806;52.270;10.544;2023-02-13T11:58:02;10.70;99.90
7530;DHT22;3806;52.270;10.544;2023-02-13T12:00:34;10.70;99.90
7530;DHT22;3806;52.270;10.544;2023-02-13T12:03:31;10.80;99.90
7530;DHT22;3806;52.270;10.544;2023-02-13T12:06:14;10.80;99.90
7530;DHT22;3806;52.270;10.544;2023-02-13T12:08:45;10.70;99.90
7530;DHT22;3806;52.270;10.544;2023-02-13T12:11:27;10.70;99.90
7530;DHT22;3806;52.270;10.544;2023-02-13T12:13:58;10.70;99.90
7530;DHT22;3806;52.270;10.544;2023-02-13T12:19:19;10.70;99.90
7530;DHT22;3806;52.270;10.544;2023-02-13T12:24:51;10.70;99.90
7530;DHT22;3806;52.270;10.544;2023-02-13T12:36:09;10.70;99.90
7530;DHT22;3806;52.270;10.544;2023-02-13T12:49:17;10.90;99.90
7530;DHT22;3806;52.270;10.544;2023-02-13T13:11:55;10.90;99.90
7530;DHT22;3806;52.270;10.544;2023-02-13T13:14:34;10.90;99.90
7530;DHT22;3806;52.270;10.544;2023-02-13T13:17:42;10.90;99.90
7530;DHT22;3806;52.270;10.544;2023-02-13T13:23:10;10.90;99.90
7530;DHT22;3806;52.270;10.544;2023-02-13T13:28:37;11.10;99.90
7530;DHT22;3806;52.270;10.544;2023-02-13T13:33:30;11.20;99.90
7530;DHT22;3806;52.270;10.544;2023-02-13T13:38:32;11.20;99.90
7530;DHT22;3806;52.270;10.544;2023-02-13T13:46:53;11.30;99.90
7530;DHT22;3806;52.270;10.544;2023-02-13T13:52:20;11.30;99.80
7530;DHT22;3806;52.270;10.544;2023-02-13T13:54:46;11.30;99.80
7530;DHT22;3806;52.270;10.544;2023-02-13T14:00:00;11.30;99.70
7530;DHT22;3806;52.270;10.544;2023-02-13T14:05:31;11.30;99.80
7530;DHT22;3806;52.270;10.544;2023-02-13T14:07:59;11.20;99.80
7530;DHT22;3806;52.270;10.544;2023-02-13T14:23:32;11.00;99.60
7530;DHT22;3806;52.270;10.544;2023-02-13T14:28:42;10.80;99.80
7530;DHT22;3806;52.270;10.544;2023-02-13T14:31:39;10.60;99.90
7530;DHT22;3806;52.270;10.544;2023-02-13T14:36:47;10.40;99.90
7530;DHT22;3806;52.270;10.544;2023-02-13T14:39:24;10.40;99.90
7530;DHT22;3806;52.270;10.544;2023-02-13T14:46:49;10.30;99.90
7530;DHT22;3806;52.270;10.544;2023-02-13T14:49:29;10.30;99.90
7530;DHT22;3806;52.270;10.544;2023-02-13T14:52:02;10.30;99.90
7530;DHT22;3806;52.270;10.544;2023-02-13T14:57:18;10.40;99.90
7530;DHT22;3806;52.270;10.544;2023-02-13T14:59:52;10.40;99.90
7530;DHT22;3806;52.270;10.544;2023-02-13T15:02:27;10.40;99.90
7530;DHT22;3806;52.270;10.544;2023-02-13T15:04:58;10.40;99.90
7530;DHT22;3806;52.270;10.544;2023-02-13T15:07:29;10.40;99.90
7530;DHT22;3806;52.270;10.544;2023-02-13T15:10:11;10.30;99.90
7530;DHT22;3806;52.270;10.544;2023-02-13T15:12:42;10.20;99.90
7530;DHT22;3806;52.270;10.544;2023-02-13T15:15:26;10.20;99.90
7530;DHT22;3806;52.270;10.544;2023-02-13T15:18:02;10.20;99.90
7530;DHT22;3806;52.270;10.544;2023-02-13T15:20:33;10.20;99.90
7530;DHT22;3806;52.270;10.544;2023-02-13T15:22:59;10.20;99.90
7530;DHT22;3806;52.270;10.544;2023-02-13T15:25:38;10.20;99.90
7530;DHT22;3806;52.270;10.544;2023-02-13T15:28:06;10.20;99.90
7530;DHT22;3806;52.270;10.544;2023-02-13T15:30:34;10.20;99.90
7530;DHT22;3806;52.270;10.544;2023-02-13T15:33:16;10.30;99.90
7530;DHT22;3806;52.270;10.544;2023-02-13T15:35:42;10.30;99.90
7530;DHT22;3806;52.270;10.544;2023-02-13T15:38:33;10.20;99.80
7530;DHT22;3806;52.270;10.544;2023-02-13T15:41:08;10.20;99.70
7530;DHT22;3806;52.270;10.544;2023-02-13T15:43:41;10.20;99.60
7530;DHT22;3806;52.270;10.544;2023-02-13T15:48:49;10.20;99.10
7530;DHT22;3806;52.270;10.544;2023-02-13T15:51:25;10.10;99.10
7530;DHT22;3806;52.270;10.544;2023-02-13T15:56:16;10.10;99.20
7530;DHT22;3806;52.270;10.544;2023-02-13T15:58:42;10.00;99.30
7530;DHT22;3806;52.270;10.544;2023-02-13T16:01:08;10.00;99.50
7530;DHT22;3806;52.270;10.544;2023-02-13T16:03:36;10.00;99.40
7530;DHT22;3806;52.270;10.544;2023-02-13T16:06:04;10.00;99.40
7530;DHT22;3806;52.270;10.544;2023-02-13T16:11:29;9.80;99.90
7530;DHT22;3806;52.270;10.544;2023-02-13T16:16:28;9.70;99.90
7530;DHT22;3806;52.270;10.544;2023-02-13T16:18:54;9.70;99.90
7530;DHT22;3806;52.270;10.544;2023-02-13T16:21:22;9.70;99.90
7530;DHT22;3806;52.270;10.544;2023-02-13T16:23:51;9.70;99.90
7530;DHT22;3806;52.270;10.544;2023-02-13T16:26:18;9.70;99.90
7530;DHT22;3806;52.270;10.544;2023-02-13T16:28:47;9.70;99.90
7530;DHT22;3806;52.270;10.544;2023-02-13T16:31:14;9.60;99.90
7530;DHT22;3806;52.270;10.544;2023-02-13T16:33:41;9.60;99.90
7530;DHT22;3806;52.270;10.544;2023-02-13T16:51:51;9.30;99.90
7530;DHT22;3806;52.270;10.544;2023-02-13T16:57:22;9.30;99.90
7530;DHT22;3806;52.270;10.544;2023-02-13T17:02:35;9.30;99.90
7530;DHT22;3806;52.270;10.544;2023-02-13T17:07:41;9.30;99.90
7530;DHT22;3806;52.270;10.544;2023-02-13T17:12:37;9.20;99.90
7530;DHT22;3806;52.270;10.544;2023-02-13T17:15:04;9.20;99.90
7530;DHT22;3806;52.270;10.544;2023-02-13T17:17:32;9.20;99.90
7530;DHT22;3806;52.270;10.544;2023-02-13T17:19:58;9.20;99.90
7530;DHT22;3806;52.270;10.544;2023-02-13T17:22:36;9.20;99.90
7530;DHT22;3806;52.270;10.544;2023-02-13T17:25:05;9.20;99.90
7530;DHT22;3806;52.270;10.544;2023-02-13T17:27:33;9.20;99.90
7530;DHT22;3806;52.270;10.544;2023-02-13T17:29:59;9.20;99.90
7530;DHT22;3806;52.270;10.544;2023-02-13T17:32:25;9.20;99.90
7530;DHT22;3806;52.270;10.544;2023-02-13T17:34:51;9.20;99.90
7530;DHT22;3806;52.270;10.544;2023-02-13T17:37:20;9.20;99.90
7530;DHT22;3806;52.270;10.544;2023-02-13T17:39:47;9.20;99.90
7530;DHT22;3806;52.270;10.544;2023-02-13T17:42:25;9.20;99.90
7530;DHT22;3806;52.270;10.544;2023-02-13T17:44:51;9.20;99.90
7530;DHT22;3806;52.270;10.544;2023-02-13T17:47:17;9.10;99.90
7530;DHT22;3806;52.270;10.544;2023-02-13T17:49:43;9.10;99.90
7530;DHT22;3806;52.270;10.544;2023-02-13T17:52:20;9.00;99.90
7530;DHT22;3806;52.270;10.544;2023-02-13T17:54:47;9.10;99.90
7530;DHT22;3806;52.270;10.544;2023-02-13T17:57:15;9.10;99.90
7530;DHT22;3806;52.270;10.544;2023-02-13T17:59:41;9.00;99.90
7530;DHT22;3806;52.270;10.544;2023-02-13T18:02:24;8.90;99.90
7530;DHT22;3806;52.270;10.544;2023-02-13T18:04:51;8.90;99.90
7530;DHT22;3806;52.270;10.544;2023-02-13T18:07:19;8.90;99.90
7530;DHT22;3806;52.270;10.544;2023-02-13T18:09:45;8.90;99.90
7530;DHT22;3806;52.270;10.544;2023-02-13T18:12:17;8.90;99.90
7530;DHT22;3806;52.270;10.544;2023-02-13T18:14:43;8.80;99.90
7530;DHT22;3806;52.270;10.544;2023-02-13T18:17:09;8.70;99.90
7530;DHT22;3806;52.270;10.544;2023-02-13T18:19:35;8.60;99.90
7530;DHT22;3806;52.270;10.544;2023-02-13T18:22:02;8.60;99.90
7530;DHT22;3806;52.270;10.544;2023-02-13T18:24:32;8.50;99.90
7530;DHT22;3806;52.270;10.544;2023-02-13T18:26:58;8.40;99.90
7530;DHT22;3806;52.270;10.544;2023-02-13T18:29:25;8.40;99.90
7530;DHT22;3806;52.270;10.544;2023-02-13T18:31:51;8.30;99.90
7530;DHT22;3806;52.270;10.544;2023-02-13T18:34:21;8.30;99.90
7530;DHT22;3806;52.270;10.544;2023-02-13T18:36:47;8.40;99.90
7530;DHT22;3806;52.270;10.544;2023-02-13T18:39:14;8.40;99.90
7530;DHT22;3806;52.270;10.544;2023-02-13T18:41:40;8.50;99.90
7530;DHT22;3806;52.270;10.544;2023-02-13T18:44:06;8.50;99.90
7530;DHT22;3806;52.270;10.544;2023-02-13T18:46:31;8.60;99.90
7530;DHT22;3806;52.270;10.544;2023-02-13T18:48:57;8.60;99.90
7530;DHT22;3806;52.270;10.544;2023-02-13T18:51:23;8.60;99.90
7530;DHT22;3806;52.270;10.544;2023-02-13T18:53:48;8.60;99.90
7530;DHT22;3806;52.270;10.544;2023-02-13T18:56:14;8.60;99.90
7530;DHT22;3806;52.270;10.544;2023-02-13T18:58:40;8.60;99.90
7530;DHT22;3806;52.270;10.544;2023-02-13T19:01:17;8.60;99.90
7530;DHT22;3806;52.270;10.544;2023-02-13T19:03:45;8.60;99.90
7530;DHT22;3806;52.270;10.544;2023-02-13T19:06:12;8.50;99.90
7530;DHT22;3806;52.270;10.544;2023-02-13T19:08:39;8.60;99.90
7530;DHT22;3806;52.270;10.544;2023-02-13T19:11:08;8.60;99.90
7530;DHT22;3806;52.270;10.544;2023-02-13T19:13:34;8.50;99.90
7530;DHT22;3806;52.270;10.544;2023-02-13T19:16:14;8.50;99.90
7530;DHT22;3806;52.270;10.544;2023-02-13T19:18:42;8.50;99.90
7530;DHT22;3806;52.270;10.544;2023-02-13T19:21:08;8.50;99.90
7530;DHT22;3806;52.270;10.544;2023-02-13T19:23:34;8.40;99.90
7530;DHT22;3806;52.270;10.544;2023-02-13T19:26:09;8.40;99.90
7530;DHT22;3806;52.270;10.544;2023-02-13T19:28:35;8.30;99.90
7530;DHT22;3806;52.270;10.544;2023-02-13T19:31:03;8.30;99.90
7530;DHT22;3806;52.270;10.544;2023-02-13T19:33:28;8.20;99.90
7530;DHT22;3806;52.270;10.544;2023-02-13T19:35:58;8.20;99.90
7530;DHT22;3806;52.270;10.544;2023-02-13T19:38:25;8.20;99.90
7530;DHT22;3806;52.270;10.544;2023-02-13T19:40:51;8.10;99.90
7530;DHT22;3806;52.270;10.544;2023-02-13T19:43:17;8.10;99.90
7530;DHT22;3806;52.270;10.544;2023-02-13T19:45:42;8.10;99.90
7530;DHT22;3806;52.270;10.544;2023-02-13T19:48:09;8.10;99.90
7530;DHT22;3806;52.270;10.544;2023-02-13T19:50:35;8.00;99.90
7530;DHT22;3806;52.270;10.544;2023-02-13T19:53:00;8.00;99.90
7530;DHT22;3806;52.270;10.544;2023-02-13T19:55:28;8.00;99.90